Time;durP1;ratioP1;P1;durP2;ratioP2;P2;SDS_P1;SDS_P2;PMS_P1;PMS_P2;Temp;Humidity;BMP_temperature;BMP_pressure;BME280_temperature;BME280_humidity;BME280_pressure;Samples;Min_cycle;Max_cycle;Signal;HPM_P1;HPM_P2
2022/04/28 00:00:15;;;;;;;15.00;5.30;;;;;;;;;;5010475;28;96784;-78
2022/04/28 00:02:42;;;;;;;9.70;4.65;;;;;;;;;;5007133;28;97648;-78
2022/04/28 00:05:09;;;;;;;13.38;5.57;;;;;;;;;;4994011;28;95201;-77
2022/04/28 00:07:38;;;;;;;10.65;4.95;;;;;;;;;;4995196;28;96068;-78
2022/04/28 00:10:05;;;;;;;11.40;4.75;;;;;;;;;;5015280;28;95523;-78
2022/04/28 00:12:32;;;;;;;12.50;4.97;;;;;;;;;;4998091;28;96863;-76
2022/04/28 00:14:58;;;;;;;13.38;5.07;;;;;;;;;;4996477;28;97323;-76
2022/04/28 00:17:24;;;;;;;10.68;5.07;;;;;;;;;;5008340;28;95490;-78
2022/04/28 00:19:51;;;;;;;12.80;5.20;;;;;;;;;;5014881;28;96757;-79
2022/04/28 00:22:17;;;;;;;11.23;5.32;;;;;;;;;;4996163;28;97293;-76
2022/04/28 00:24:44;;;;;;;11.63;5.57;;;;;;;;;;5001127;28;95196;-74
2022/04/28 00:27:10;;;;;;;12.63;5.72;;;;;;;;;;5014628;28;96878;-78
2022/04/28 00:29:37;;;;;;;13.32;4.65;;;;;;;;;;5016208;28;96907;-80
2022/04/28 00:32:03;;;;;;;9.75;5.28;;;;;;;;;;5015134;28;96847;-78
2022/04/28 00:34:30;;;;;;;12.68;5.10;;;;;;;;;;5003868;28;97627;-76
2022/04/28 00:36:56;;;;;;;9.85;4.90;;;;;;;;;;4994574;28;95473;-74
2022/04/28 00:39:22;;;;;;;12.57;5.80;;;;;;;;;;5010166;28;96985;-74
2022/04/28 00:41:49;;;;;;;12.02;5.30;;;;;;;;;;5014439;28;96075;-74
2022/04/28 00:44:16;;;;;;;15.27;5.93;;;;;;;;;;4996453;28;95359;-73
2022/04/28 00:46:43;;;;;;;20.23;6.80;;;;;;;;;;4995990;28;96794;-78
2022/04/28 00:51:54;;;;;;;20.75;8.27;;;;;;;;;;4998001;28;95154;-78
2022/04/28 00:54:24;;;;;;;22.98;7.43;;;;;;;;;;4994195;28;96215;-77
2022/04/28 00:56:51;;;;;;;17.92;7.18;;;;;;;;;;4994867;28;95217;-75
2022/04/28 00:59:17;;;;;;;14.38;5.93;;;;;;;;;;4999280;28;96947;-80
2022/04/28 01:01:44;;;;;;;16.88;5.75;;;;;;;;;;5013749;28;96303;-77
2022/04/28 01:04:10;;;;;;;11.70;5.30;;;;;;;;;;4997371;28;95149;-75
2022/04/28 01:06:39;;;;;;;13.45;5.38;;;;;;;;;;4994245;28;95035;-75
2022/04/28 01:09:05;;;;;;;9.40;4.82;;;;;;;;;;4994110;28;97617;-78
2022/04/28 01:11:33;;;;;;;7.95;4.45;;;;;;;;;;5006041;28;95317;-78
2022/04/28 01:14:00;;;;;;;12.43;5.03;;;;;;;;;;5013405;28;96705;-76
2022/04/28 01:16:26;;;;;;;10.65;5.60;;;;;;;;;;5005142;28;95580;-74
2022/04/28 01:18:52;;;;;;;12.60;5.72;;;;;;;;;;5014257;28;97192;-79
2022/04/28 01:21:20;;;;;;;11.27;5.70;;;;;;;;;;5013472;28;97424;-78
2022/04/28 01:23:46;;;;;;;14.27;5.72;;;;;;;;;;5011805;28;95475;-76
2022/04/28 01:26:13;;;;;;;10.95;5.70;;;;;;;;;;4995099;28;96770;-75
2022/04/28 01:28:39;;;;;;;11.40;5.78;;;;;;;;;;4993806;28;97478;-77
2022/04/28 01:31:05;;;;;;;10.05;5.50;;;;;;;;;;4994143;28;95232;-76
2022/04/28 01:33:32;;;;;;;17.48;5.82;;;;;;;;;;4994139;28;96852;-75
2022/04/28 01:35:59;;;;;;;12.30;6.00;;;;;;;;;;5007048;28;97072;-75
2022/04/28 01:38:25;;;;;;;15.15;6.55;;;;;;;;;;5012085;28;95950;-76
2022/04/28 01:40:52;;;;;;;14.55;6.00;;;;;;;;;;4999128;28;97346;-75
2022/04/28 01:43:18;;;;;;;11.23;5.55;;;;;;;;;;4993205;28;95562;-78
2022/04/28 01:45:44;;;;;;;10.00;6.13;;;;;;;;;;4993521;28;95806;-76
2022/04/28 01:48:11;;;;;;;13.85;6.18;;;;;;;;;;4993754;28;97393;-75
2022/04/28 01:50:37;;;;;;;12.20;5.80;;;;;;;;;;4993359;28;95403;-76
2022/04/28 01:55:49;;;;;;;10.98;6.15;;;;;;;;;;5015183;28;97698;-78
2022/04/28 01:58:15;;;;;;;11.23;5.63;;;;;;;;;;5013296;28;96881;-75
2022/04/28 02:00:41;;;;;;;13.18;6.28;;;;;;;;;;5008537;28;97371;-77
2022/04/28 02:03:08;;;;;;;12.55;6.15;;;;;;;;;;4994129;28;97185;-77
2022/04/28 02:05:35;;;;;;;12.55;6.10;;;;;;;;;;5005818;28;96746;-76
2022/04/28 02:08:02;;;;;;;12.07;6.20;;;;;;;;;;5013661;28;97428;-76
2022/04/28 02:10:29;;;;;;;9.93;6.43;;;;;;;;;;5009032;28;95417;-78
2022/04/28 02:12:55;;;;;;;9.95;5.40;;;;;;;;;;4992125;28;96723;-75
2022/04/28 02:15:22;;;;;;;10.18;5.65;;;;;;;;;;5005375;28;97393;-73
2022/04/28 02:17:49;;;;;;;13.85;5.72;;;;;;;;;;4996501;28;95461;-74
2022/04/28 02:20:18;;;;;;;11.00;6.00;;;;;;;;;;5001272;28;97042;-73
2022/04/28 02:22:49;;;;;;;18.08;6.63;;;;;;;;;;4996161;28;95976;-74
2022/04/28 02:25:15;;;;;;;12.32;5.97;;;;;;;;;;5012425;28;95801;-74
2022/04/28 02:27:42;;;;;;;10.30;5.78;;;;;;;;;;5009849;28;97246;-78
2022/04/28 02:30:08;;;;;;;12.25;6.22;;;;;;;;;;5013565;28;95477;-77
2022/04/28 02:35:19;;;;;;;12.90;6.07;;;;;;;;;;5012067;28;97341;-75
2022/04/28 02:37:46;;;;;;;13.70;6.40;;;;;;;;;;5006685;28;95376;-74
2022/04/28 02:40:12;;;;;;;13.15;5.97;;;;;;;;;;4995956;28;96850;-75
2022/04/28 02:42:39;;;;;;;14.80;6.30;;;;;;;;;;5012929;28;95380;-74
2022/04/28 02:45:06;;;;;;;9.50;5.35;;;;;;;;;;5013154;28;96770;-75
2022/04/28 02:47:32;;;;;;;12.27;6.13;;;;;;;;;;5012298;28;97265;-74
2022/04/28 02:49:59;;;;;;;13.05;5.68;;;;;;;;;;5013282;28;95411;-75
2022/04/28 02:52:25;;;;;;;10.15;6.38;;;;;;;;;;5004049;28;97038;-75
2022/04/28 02:54:51;;;;;;;12.00;5.97;;;;;;;;;;5011607;28;97336;-73
2022/04/28 02:57:18;;;;;;;9.90;5.75;;;;;;;;;;5012865;28;95356;-73
2022/04/28 02:59:44;;;;;;;10.20;6.07;;;;;;;;;;5012489;28;96716;-73
2022/04/28 03:02:10;;;;;;;14.05;6.25;;;;;;;;;;5005466;28;97547;-73
2022/04/28 03:04:37;;;;;;;15.93;6.20;;;;;;;;;;4998867;28;96917;-77
2022/04/28 03:12:37;;;;;;;12.25;5.78;;;;;;;;;;4992506;28;97275;-74
2022/04/28 03:15:04;;;;;;;9.85;5.70;;;;;;;;;;4992273;28;96212;-74
2022/04/28 03:17:30;;;;;;;11.23;6.05;;;;;;;;;;4993017;28;94947;-74
2022/04/28 03:19:57;;;;;;;10.23;5.43;;;;;;;;;;4992836;28;96824;-72
2022/04/28 03:22:23;;;;;;;12.60;6.00;;;;;;;;;;4994520;28;96214;-74
2022/04/28 03:24:54;;;;;;;10.88;5.93;;;;;;;;;;5012419;28;95409;-76
2022/04/28 03:27:20;;;;;;;10.52;6.20;;;;;;;;;;5000479;28;97391;-73
2022/04/28 03:29:47;;;;;;;13.02;6.72;;;;;;;;;;5011129;28;95365;-73
2022/04/28 03:32:13;;;;;;;9.77;6.30;;;;;;;;;;5012630;28;96858;-76
2022/04/28 03:34:40;;;;;;;10.88;5.97;;;;;;;;;;5011788;28;98217;-77
2022/04/28 03:37:06;;;;;;;11.57;6.63;;;;;;;;;;5012064;28;95400;-74
2022/04/28 03:39:32;;;;;;;12.77;6.10;;;;;;;;;;5012121;28;96717;-76
2022/04/28 03:41:59;;;;;;;11.80;6.50;;;;;;;;;;5012142;28;98457;-75
2022/04/28 03:44:25;;;;;;;14.95;7.32;;;;;;;;;;5011684;28;95396;-74
2022/04/28 03:46:51;;;;;;;11.65;6.57;;;;;;;;;;5015188;28;95784;-74
2022/04/28 03:49:18;;;;;;;17.13;6.88;;;;;;;;;;5014592;28;95437;-76
2022/04/28 03:51:44;;;;;;;19.10;7.60;;;;;;;;;;5014129;28;97105;-74
2022/04/28 03:54:11;;;;;;;12.82;7.03;;;;;;;;;;4995878;28;96101;-75
2022/04/28 03:56:43;;;;;;;13.55;6.93;;;;;;;;;;4995325;28;95323;-78
2022/04/28 03:59:11;;;;;;;12.13;6.78;;;;;;;;;;5015633;28;96824;-76
2022/04/28 04:01:42;;;;;;;11.07;6.47;;;;;;;;;;5003064;28;96990;-73
2022/04/28 04:04:14;;;;;;;13.30;7.10;;;;;;;;;;4995201;28;95559;-74
2022/04/28 04:06:40;;;;;;;9.77;6.45;;;;;;;;;;5000585;28;97254;-74
2022/04/28 04:09:08;;;;;;;12.95;6.72;;;;;;;;;;5012914;28;95388;-76
2022/04/28 04:11:34;;;;;;;13.30;5.88;;;;;;;;;;5014463;28;96938;-76
2022/04/28 19:48:29;;;;;;;12.00;5.32;;;;;;;;;;5030754;28;95246;-73
2022/04/28 19:50:56;;;;;;;13.32;6.55;;;;;;;;;;5025721;27;97360;-75
2022/04/28 19:53:23;;;;;;;12.05;5.72;;;;;;;;;;5009399;28;95176;-78
2022/04/28 19:55:51;;;;;;;11.85;5.95;;;;;;;;;;5025401;28;96834;-73
2022/04/28 19:58:18;;;;;;;14.68;6.28;;;;;;;;;;5026854;28;98044;-76
2022/04/28 20:00:44;;;;;;;20.50;6.78;;;;;;;;;;5029834;27;95475;-75
2022/04/28 20:03:10;;;;;;;10.57;5.90;;;;;;;;;;5028749;28;96677;-76
2022/04/28 20:05:37;;;;;;;21.35;6.05;;;;;;;;;;5028652;28;97818;-76
2022/04/28 20:08:03;;;;;;;15.73;6.25;;;;;;;;;;5032444;28;95493;-78
2022/04/28 20:10:30;;;;;;;14.02;5.68;;;;;;;;;;5028735;27;97559;-78
2022/04/28 20:12:57;;;;;;;14.88;6.45;;;;;;;;;;5026673;27;96134;-75
2022/04/28 20:15:24;;;;;;;15.27;5.53;;;;;;;;;;5028780;28;96705;-75
2022/04/28 20:17:51;;;;;;;15.02;6.13;;;;;;;;;;5028352;28;97314;-75
2022/04/28 20:20:18;;;;;;;18.15;6.53;;;;;;;;;;5017593;27;95222;-75
2022/04/28 20:22:44;;;;;;;22.30;5.53;;;;;;;;;;5009442;28;97062;-75
2022/04/28 20:25:12;;;;;;;15.60;5.60;;;;;;;;;;5015545;28;97210;-75
2022/04/28 20:27:46;;;;;;;18.70;5.53;;;;;;;;;;5027976;28;95249;-75
2022/04/28 20:30:15;;;;;;;17.10;6.90;;;;;;;;;;5029490;27;97242;-76
2022/04/28 20:32:42;;;;;;;11.55;5.68;;;;;;;;;;5021023;28;95438;-76
2022/04/28 20:35:11;;;;;;;18.25;5.85;;;;;;;;;;5015889;28;96761;-76
2022/04/28 20:37:38;;;;;;;12.48;5.50;;;;;;;;;;5027589;28;96868;-76
2022/04/28 20:40:08;;;;;;;15.75;5.70;;;;;;;;;;5026930;27;95237;-76
2022/04/28 20:42:35;;;;;;;16.02;5.93;;;;;;;;;;5026914;28;96613;-74
2022/04/28 20:45:02;;;;;;;15.70;5.95;;;;;;;;;;5028037;28;97282;-76
2022/04/28 20:47:28;;;;;;;12.98;6.28;;;;;;;;;;5028133;28;96666;-75
2022/04/28 20:49:54;;;;;;;8.57;5.45;;;;;;;;;;5025773;27;96643;-76
2022/04/28 20:52:21;;;;;;;17.98;6.10;;;;;;;;;;5029958;28;97351;-76
2022/04/28 20:54:51;;;;;;;14.20;5.93;;;;;;;;;;5028329;28;96854;-76
2022/04/28 20:57:18;;;;;;;18.45;6.57;;;;;;;;;;5026902;28;97184;-74
2022/04/28 20:59:45;;;;;;;12.70;6.30;;;;;;;;;;5009164;28;96083;-78
2022/04/28 21:02:12;;;;;;;13.35;5.75;;;;;;;;;;5005144;28;96887;-76
2022/04/28 21:04:38;;;;;;;13.00;6.22;;;;;;;;;;5006156;28;97279;-75
2022/04/28 21:07:05;;;;;;;11.77;6.32;;;;;;;;;;5013713;28;95415;-76
2022/04/28 21:09:32;;;;;;;13.52;6.10;;;;;;;;;;5008382;28;97059;-73
2022/04/28 21:12:00;;;;;;;10.82;6.30;;;;;;;;;;5005852;28;97454;-74
2022/04/28 21:14:27;;;;;;;15.00;6.15;;;;;;;;;;4998204;28;96099;-73
2022/04/28 21:16:54;;;;;;;12.73;6.25;;;;;;;;;;5009559;28;97154;-74
2022/04/28 21:19:20;;;;;;;16.30;6.30;;;;;;;;;;5004577;28;96003;-74
2022/04/28 21:21:46;;;;;;;21.40;6.15;;;;;;;;;;5014212;28;96847;-78
2022/04/28 21:24:13;;;;;;;12.23;5.85;;;;;;;;;;5014399;28;97004;-74
2022/04/28 21:26:39;;;;;;;12.15;6.13;;;;;;;;;;5013739;28;95809;-78
2022/04/28 21:29:06;;;;;;;17.45;6.22;;;;;;;;;;5013945;28;96939;-78
2022/04/28 21:31:32;;;;;;;12.98;6.38;;;;;;;;;;5014004;28;97281;-77
2022/04/28 21:33:59;;;;;;;15.80;6.40;;;;;;;;;;5015273;28;95106;-78
2022/04/28 21:36:27;;;;;;;16.55;6.50;;;;;;;;;;5017538;28;95732;-77
2022/04/28 21:38:53;;;;;;;11.63;5.75;;;;;;;;;;5011515;28;95364;-78
2022/04/28 21:41:20;;;;;;;13.60;5.93;;;;;;;;;;4999642;28;96901;-77
2022/04/28 21:43:46;;;;;;;12.40;5.95;;;;;;;;;;5014827;28;97469;-77
2022/04/28 21:46:12;;;;;;;13.38;6.38;;;;;;;;;;5014114;28;95085;-78
2022/04/28 21:48:40;;;;;;;12.40;5.85;;;;;;;;;;5014211;28;96821;-77
2022/04/28 21:51:18;;;;;;;13.13;6.32;;;;;;;;;;5011191;28;96256;-78
2022/04/28 21:53:44;;;;;;;10.73;5.45;;;;;;;;;;5013663;28;95208;-77
2022/04/28 21:56:10;;;;;;;12.85;6.70;;;;;;;;;;5014114;28;96716;-76
2022/04/28 21:58:37;;;;;;;14.75;6.00;;;;;;;;;;5017204;28;95316;-78
2022/04/28 22:01:03;;;;;;;15.82;6.07;;;;;;;;;;5013254;28;96768;-78
2022/04/28 22:11:44;;;;;;;17.08;5.78;;;;;;;;;;5004510;28;97710;-76
2022/04/28 22:14:13;;;;;;;13.07;6.15;;;;;;;;;;5014260;28;95271;-75
2022/04/28 22:16:39;;;;;;;14.43;5.70;;;;;;;;;;4996623;28;97317;-76
2022/04/28 22:19:07;;;;;;;14.75;6.03;;;;;;;;;;5016673;28;97417;-77
2022/04/28 22:21:33;;;;;;;16.60;5.93;;;;;;;;;;5013137;28;95914;-75
2022/04/28 22:23:59;;;;;;;13.40;5.72;;;;;;;;;;5014106;28;97313;-74
2022/04/28 22:26:29;;;;;;;10.68;6.03;;;;;;;;;;5013991;28;95196;-74
2022/04/28 22:28:55;;;;;;;22.50;6.53;;;;;;;;;;5013221;28;97167;-75
2022/04/28 22:31:21;;;;;;;12.25;6.63;;;;;;;;;;5012379;28;97467;-75
2022/04/28 22:33:48;;;;;;;16.08;6.25;;;;;;;;;;5013636;28;95181;-75
2022/04/28 22:36:14;;;;;;;12.77;6.07;;;;;;;;;;5013489;28;96813;-75
2022/04/28 22:38:40;;;;;;;11.85;5.75;;;;;;;;;;5013257;28;97487;-75
2022/04/28 22:41:07;;;;;;;15.20;5.80;;;;;;;;;;5009473;28;95266;-76
2022/04/28 22:43:33;;;;;;;16.60;5.90;;;;;;;;;;5012613;28;97280;-75
2022/04/28 22:45:59;;;;;;;17.30;6.15;;;;;;;;;;5014130;28;95307;-75
2022/04/28 22:48:26;;;;;;;13.77;6.57;;;;;;;;;;5012568;28;96733;-76
2022/04/28 22:50:52;;;;;;;16.85;6.60;;;;;;;;;;5011949;28;97375;-76
2022/04/28 22:53:38;;;;;;;23.85;8.27;;;;;;;;;;5012675;28;95276;-76
2022/04/28 22:56:05;;;;;;;16.67;5.95;;;;;;;;;;5013873;28;97049;-74
2022/04/28 22:58:31;;;;;;;16.95;6.40;;;;;;;;;;5012273;28;97284;-76
2022/04/28 23:00:59;;;;;;;19.63;6.50;;;;;;;;;;5011123;28;95960;-75
2022/04/28 23:03:26;;;;;;;14.80;6.30;;;;;;;;;;5014452;28;96506;-75
2022/04/28 23:05:53;;;;;;;18.55;6.82;;;;;;;;;;5013717;28;95323;-74
2022/04/28 23:08:20;;;;;;;10.90;5.65;;;;;;;;;;5012995;28;97012;-75
2022/04/28 23:10:46;;;;;;;16.23;6.70;;;;;;;;;;5011027;28;97474;-77
2022/04/28 23:13:12;;;;;;;16.98;6.55;;;;;;;;;;5012796;28;95241;-75
2022/04/28 23:15:39;;;;;;;15.88;6.57;;;;;;;;;;5012801;28;96722;-75
2022/04/28 23:18:06;;;;;;;12.05;5.80;;;;;;;;;;4994991;28;97381;-75
2022/04/28 23:20:33;;;;;;;12.95;6.53;;;;;;;;;;5012183;28;95295;-75
2022/04/28 23:22:59;;;;;;;10.77;5.68;;;;;;;;;;5012861;28;96831;-75
2022/04/28 23:25:26;;;;;;;12.75;6.00;;;;;;;;;;5015498;28;97263;-76
2022/04/28 23:27:52;;;;;;;10.43;5.78;;;;;;;;;;5013500;28;96836;-75
2022/04/28 23:30:19;;;;;;;12.18;6.35;;;;;;;;;;5011316;28;97767;-74
2022/04/28 23:32:45;;;;;;;13.57;6.50;;;;;;;;;;5011926;28;95465;-75
2022/04/28 23:40:41;;;;;;;16.15;6.07;;;;;;;;;;5011847;28;95216;-75
2022/04/28 23:43:08;;;;;;;11.05;6.35;;;;;;;;;;5012958;28;96900;-75
2022/04/28 23:45:34;;;;;;;16.92;6.32;;;;;;;;;;5012238;28;97418;-74
2022/04/28 23:48:02;;;;;;;15.13;6.50;;;;;;;;;;5015425;28;95255;-76
2022/04/28 23:50:29;;;;;;;15.57;6.47;;;;;;;;;;5011465;28;97690;-78
2022/04/28 23:55:41;;;;;;;10.55;6.20;;;;;;;;;;5012314;28;96893;-79
2022/04/28 23:58:07;;;;;;;15.60;6.10;;;;;;;;;;5012222;28;96269;-80
